createdAt,value
2018-12-10T00:03:17.369Z,6.20
2018-12-10T00:08:18.562Z,6.10
2018-12-10T00:13:19.743Z,6.10
2018-12-10T00:18:20.912Z,6.00
2018-12-10T00:23:22.070Z,6.10
2018-12-10T00:28:23.247Z,6.00
2018-12-10T00:33:24.430Z,6.00
2018-12-10T00:38:25.601Z,5.90
2018-12-10T00:43:26.841Z,5.70
2018-12-10T00:48:28.066Z,5.70
2018-12-10T00:53:29.242Z,5.70
2018-12-10T00:58:30.397Z,5.80
2018-12-10T01:03:31.574Z,5.80
2018-12-10T01:08:32.751Z,5.90
2018-12-10T01:13:33.931Z,5.90
2018-12-10T01:18:35.105Z,5.90
2018-12-10T01:23:36.267Z,5.90
2018-12-10T01:28:37.446Z,5.90
2018-12-10T01:33:38.682Z,5.90
2018-12-10T01:38:39.862Z,5.90
2018-12-10T01:43:41.056Z,5.90
2018-12-10T01:48:42.233Z,6.00
2018-12-10T01:53:43.406Z,6.00
2018-12-10T01:58:44.582Z,5.90
2018-12-10T02:08:47.278Z,5.90
2018-12-10T02:13:48.436Z,5.80
2018-12-10T02:18:49.644Z,5.70
2018-12-10T02:23:50.832Z,5.60
2018-12-10T02:34:25.426Z,5.50
2018-12-10T02:39:26.582Z,5.50
2018-12-10T02:44:27.781Z,5.50
2018-12-10T02:49:28.994Z,5.50
2018-12-10T02:54:30.293Z,7.00
2018-12-10T02:59:31.466Z,6.40
2018-12-10T03:04:32.638Z,5.40
2018-12-10T03:09:33.938Z,5.40
2018-12-10T03:14:35.114Z,5.40
2018-12-10T03:19:36.270Z,5.40
2018-12-10T03:24:37.446Z,5.40
2018-12-10T03:29:38.614Z,5.40
2018-12-10T03:34:39.778Z,5.40
2018-12-10T03:39:40.947Z,5.40
2018-12-10T03:44:42.114Z,5.40
2018-12-10T03:49:43.323Z,5.40
2018-12-10T03:54:44.523Z,5.30
2018-12-10T03:59:45.702Z,5.30
2018-12-10T04:04:46.896Z,5.30
2018-12-10T04:09:48.092Z,5.20
2018-12-10T04:14:49.389Z,5.10
2018-12-10T04:19:50.566Z,5.10
2018-12-10T04:24:51.828Z,5.00
2018-12-10T04:29:53.010Z,5.00
2018-12-10T04:34:54.170Z,4.90
2018-12-10T04:39:55.359Z,5.00
2018-12-10T04:44:56.538Z,4.90
2018-12-10T04:49:57.716Z,4.90
2018-12-10T04:54:58.880Z,4.90
2018-12-10T05:00:00.086Z,4.80
2018-12-10T05:05:01.314Z,4.80
2018-12-10T05:10:03.214Z,4.80
2018-12-10T05:15:04.585Z,4.80
2018-12-10T05:20:05.873Z,4.80
2018-12-10T05:25:07.090Z,4.80
2018-12-10T05:30:08.257Z,4.70
2018-12-10T05:35:09.495Z,4.80
2018-12-10T05:40:10.785Z,4.70
2018-12-10T05:45:12.194Z,4.70
2018-12-10T05:50:13.361Z,4.70
2018-12-10T05:55:14.534Z,4.70
2018-12-10T06:00:15.752Z,4.70
2018-12-10T06:05:17.065Z,4.70
2018-12-10T06:10:18.266Z,4.70
2018-12-10T06:15:19.456Z,4.70
2018-12-10T06:20:20.624Z,4.40
2018-12-10T06:25:21.811Z,4.10
2018-12-10T06:30:23.014Z,3.70
2018-12-10T06:35:24.197Z,3.40
2018-12-10T06:40:25.382Z,3.20
2018-12-10T06:45:26.565Z,3.00
2018-12-10T06:50:27.750Z,3.00
2018-12-10T06:55:28.946Z,2.90
2018-12-10T07:00:30.135Z,2.90
2018-12-10T07:05:31.354Z,2.90
2018-12-10T07:10:32.532Z,2.90
2018-12-10T07:15:33.717Z,2.90
2018-12-10T07:20:35.014Z,2.90
2018-12-10T07:25:36.181Z,2.90
2018-12-10T07:30:41.397Z,2.90
2018-12-10T07:35:40.561Z,3.10
2018-12-10T07:40:41.741Z,3.20
2018-12-10T07:45:42.902Z,3.40
2018-12-10T07:50:44.203Z,3.40
2018-12-10T07:55:45.387Z,3.50
2018-12-10T08:00:46.589Z,3.50
2018-12-10T08:05:47.827Z,3.50
2018-12-10T08:10:49.015Z,3.60
2018-12-10T08:15:50.208Z,3.60
2018-12-10T08:20:51.612Z,3.80
2018-12-10T08:25:53.449Z,4.00
2018-12-10T08:30:54.652Z,4.20
2018-12-10T08:35:55.895Z,4.30
2018-12-10T08:40:57.071Z,4.30
2018-12-10T08:45:58.247Z,4.50
2018-12-10T08:50:59.433Z,4.60
2018-12-10T08:56:00.633Z,4.70
2018-12-10T09:01:01.828Z,4.70
2018-12-10T09:06:03.029Z,4.70
2018-12-10T09:11:04.346Z,4.80
2018-12-10T09:16:05.675Z,4.80
2018-12-10T09:21:06.847Z,4.90
2018-12-10T09:26:08.164Z,4.90
2018-12-10T09:31:09.344Z,4.90
2018-12-10T09:36:10.541Z,4.90
2018-12-10T09:41:11.750Z,4.80
2018-12-10T09:46:12.942Z,4.80
2018-12-10T09:51:14.240Z,4.80
2018-12-10T09:56:15.399Z,4.80
2018-12-10T10:01:16.564Z,4.90
2018-12-10T10:06:17.777Z,5.10
2018-12-10T10:11:18.963Z,5.40
2018-12-10T10:16:20.160Z,6.40
2018-12-10T10:21:21.363Z,6.60
2018-12-10T10:26:23.263Z,6.70
2018-12-10T10:31:24.505Z,7.60
2018-12-10T10:36:25.678Z,8.10
2018-12-10T10:41:31.255Z,7.10
2018-12-10T10:46:30.176Z,6.90
2018-12-10T10:51:31.557Z,6.90
2018-12-10T10:56:32.753Z,7.20
2018-12-10T11:01:39.918Z,6.60
2018-12-10T11:06:41.104Z,6.10
2018-12-10T11:11:42.279Z,5.70
2018-12-10T11:16:43.461Z,5.40
2018-12-10T11:21:44.790Z,5.30
2018-12-10T11:26:46.010Z,5.30
2018-12-10T11:31:47.305Z,5.40
2018-12-10T11:36:48.487Z,5.70
2018-12-10T11:41:49.723Z,6.00
2018-12-10T11:46:51.026Z,6.00
2018-12-10T11:51:52.231Z,6.10
2018-12-10T11:56:53.413Z,6.00
2018-12-10T12:01:54.781Z,6.00
2018-12-10T12:06:55.963Z,5.80
2018-12-10T12:11:57.162Z,5.80
2018-12-10T12:16:58.402Z,5.90
2018-12-10T12:22:04.996Z,6.00
2018-12-10T12:27:02.929Z,5.90
2018-12-10T12:32:04.120Z,5.80
2018-12-10T12:37:05.290Z,5.70
2018-12-10T12:42:06.497Z,5.80
2018-12-10T12:47:07.689Z,5.90
2018-12-10T12:52:08.879Z,5.80
2018-12-10T12:57:10.047Z,5.70
2018-12-10T13:02:11.475Z,5.70
2018-12-10T13:07:12.662Z,5.60
2018-12-10T13:12:13.850Z,5.70
2018-12-10T13:17:15.049Z,5.70
2018-12-10T13:22:16.206Z,5.80
2018-12-10T13:27:17.396Z,6.30
2018-12-10T13:32:18.610Z,6.40
2018-12-10T13:37:19.799Z,6.00
2018-12-10T13:42:21.031Z,5.90
2018-12-10T13:47:22.222Z,9.30
2018-12-10T13:52:23.401Z,6.60
2018-12-10T13:57:24.601Z,6.50
2018-12-10T14:02:30.131Z,6.30
2018-12-10T14:07:29.017Z,6.30
2018-12-10T14:12:30.196Z,6.20
2018-12-10T14:17:31.406Z,6.20
2018-12-10T14:22:32.850Z,6.00
2018-12-10T14:27:34.155Z,5.80
2018-12-10T14:32:35.354Z,5.70
2018-12-10T14:37:36.661Z,5.60
2018-12-10T14:42:46.916Z,5.50
2018-12-10T14:47:49.360Z,5.20
2018-12-10T14:52:50.566Z,4.90
2018-12-10T14:57:51.797Z,4.80
2018-12-10T15:02:52.990Z,4.80
2018-12-10T15:07:54.176Z,4.60
2018-12-10T15:12:55.354Z,4.40
2018-12-10T15:17:56.526Z,4.20
2018-12-10T15:22:57.711Z,4.30
2018-12-10T15:27:58.897Z,4.40
2018-12-10T15:33:00.059Z,4.40
2018-12-10T15:38:01.259Z,4.30
2018-12-10T15:43:02.587Z,4.30
2018-12-10T15:48:03.771Z,4.30
2018-12-10T15:53:05.850Z,4.40
2018-12-10T15:58:07.149Z,4.40
2018-12-10T16:03:08.356Z,4.50
2018-12-10T16:08:09.539Z,4.30
2018-12-10T16:13:10.719Z,4.10
2018-12-10T16:18:11.906Z,4.00
2018-12-10T16:23:13.114Z,4.00
2018-12-10T16:28:14.290Z,3.90
2018-12-10T16:33:15.611Z,3.90
2018-12-10T16:38:16.815Z,3.90
2018-12-10T16:43:17.990Z,4.10
2018-12-10T16:48:19.228Z,4.10
2018-12-10T16:53:20.514Z,4.30
2018-12-10T16:58:22.093Z,4.40
2018-12-10T17:03:23.354Z,4.30
2018-12-10T17:08:24.561Z,4.20
2018-12-10T17:13:25.782Z,4.20
2018-12-10T17:18:27.003Z,4.20
2018-12-10T17:23:28.219Z,4.30
2018-12-10T17:28:29.392Z,4.30
2018-12-10T17:33:30.607Z,4.20
2018-12-10T17:38:31.838Z,4.20
2018-12-10T17:43:34.146Z,4.20
2018-12-10T17:48:35.477Z,4.60
2018-12-10T17:53:36.672Z,4.30
2018-12-10T17:58:37.847Z,4.40
2018-12-10T18:03:39.103Z,4.40
2018-12-10T18:08:40.275Z,4.50
2018-12-10T18:13:41.470Z,4.50
2018-12-10T18:18:42.696Z,4.50
2018-12-10T18:23:43.896Z,4.50
2018-12-10T18:28:45.109Z,4.40
2018-12-10T18:33:47.542Z,4.40
2018-12-10T18:38:48.725Z,4.40
2018-12-10T18:43:49.981Z,4.40
2018-12-10T18:48:51.214Z,4.40
2018-12-10T18:53:52.424Z,4.30
2018-12-10T18:58:53.631Z,4.50
2018-12-10T19:03:54.904Z,4.60
2018-12-10T19:08:56.530Z,4.60
2018-12-10T19:13:58.014Z,4.70
2018-12-10T19:18:59.254Z,4.70
2018-12-10T19:29:03.198Z,4.40
2018-12-10T19:34:04.409Z,3.80
2018-12-10T19:39:06.618Z,2.90
2018-12-10T19:44:07.832Z,2.50
2018-12-10T19:49:09.119Z,2.40
2018-12-10T19:54:10.375Z,2.30
2018-12-10T19:59:11.682Z,2.00
2018-12-10T20:04:12.931Z,1.90
2018-12-10T20:09:14.376Z,1.70
2018-12-10T20:14:15.588Z,1.70
2018-12-10T20:19:16.768Z,1.60
2018-12-10T20:24:17.999Z,1.50
2018-12-10T20:29:19.224Z,1.30
2018-12-10T20:34:20.554Z,1.20
2018-12-10T20:39:21.808Z,1.20
2018-12-10T20:44:23.014Z,1.40
2018-12-10T20:49:24.221Z,1.60
2018-12-10T20:54:25.438Z,1.70
2018-12-10T20:59:26.657Z,1.90
2018-12-10T21:04:27.850Z,1.90
2018-12-10T21:09:29.039Z,2.10
2018-12-10T21:14:30.301Z,2.30
2018-12-10T21:19:31.721Z,2.30
2018-12-10T21:24:32.912Z,2.40
2018-12-10T21:29:34.115Z,2.40
2018-12-10T21:40:09.925Z,2.30
2018-12-10T21:45:11.127Z,2.30
2018-12-10T21:50:12.365Z,2.40
2018-12-10T21:55:16.897Z,2.40
2018-12-10T22:00:17.177Z,2.40
2018-12-10T22:05:18.359Z,2.40
2018-12-10T22:10:19.557Z,2.50
2018-12-10T22:15:20.751Z,2.50
2018-12-10T22:20:22.176Z,2.50
2018-12-10T22:25:23.371Z,2.50
2018-12-10T22:30:24.591Z,2.60
2018-12-10T22:35:25.797Z,2.60
2018-12-10T22:40:26.972Z,2.60
2018-12-10T22:45:28.150Z,2.60
2018-12-10T22:50:29.348Z,2.60
2018-12-10T22:55:30.534Z,2.60
2018-12-10T23:00:38.147Z,2.70
2018-12-10T23:05:39.454Z,2.70
2018-12-10T23:10:40.758Z,2.80
2018-12-10T23:15:41.996Z,2.70
2018-12-10T23:20:43.175Z,2.70
2018-12-10T23:25:44.347Z,2.70
2018-12-10T23:30:45.550Z,2.60
2018-12-10T23:35:46.738Z,2.60
2018-12-10T23:40:47.927Z,2.60
2018-12-10T23:45:49.174Z,2.60
2018-12-10T23:50:50.362Z,2.60
2018-12-10T23:55:51.528Z,2.60
